Time;durP1;ratioP1;P1;durP2;ratioP2;P2;SDS_P1;SDS_P2;PMS_P1;PMS_P2;Temp;Humidity;BMP_temperature;BMP_pressure;BME280_temperature;BME280_humidity;BME280_pressure;Samples;Min_cycle;Max_cycle;Signal;HPM_P1;HPM_P2
2022/01/29 00:00:15;;;;;;;12.80;2.53;;;2.60;99.90;;;;;;4958979;28;20511;-86
2022/01/29 00:02:41;;;;;;;17.07;4.40;;;2.60;99.90;;;;;;4971897;28;20058;-87
2022/01/29 00:05:09;;;;;;;13.33;2.70;;;2.60;99.90;;;;;;4966126;28;20063;-87
2022/01/29 00:10:17;;;;;;;23.60;3.00;;;2.60;99.90;;;;;;4950746;28;20051;-91
2022/01/29 00:12:44;;;;;;;33.53;14.97;;;2.60;99.90;;;;;;4957436;28;20061;-93
2022/01/29 00:15:11;;;;;;;8.43;4.80;;;2.60;99.90;;;;;;4959418;28;20501;-91
2022/01/29 00:17:38;;;;;;;7.00;2.97;;;2.70;99.90;;;;;;4954563;28;20063;-92
2022/01/29 00:20:05;;;;;;;43.50;20.33;;;2.60;99.90;;;;;;4973391;28;20054;-91
2022/01/29 00:22:32;;;;;;;6.47;2.93;;;2.60;99.90;;;;;;4977618;28;20104;-92
2022/01/29 00:24:58;;;;;;;3.07;1.90;;;2.70;99.90;;;;;;4985399;28;20149;-88
2022/01/29 00:27:26;;;;;;;8.27;2.67;;;2.70;99.90;;;;;;4994182;28;20050;-89
2022/01/29 00:29:54;;;;;;;10.20;3.20;;;2.60;99.90;;;;;;4962239;28;20071;-85
2022/01/29 00:32:21;;;;;;;15.40;2.90;;;2.70;99.90;;;;;;4963565;28;20074;-87
2022/01/29 00:34:47;;;;;;;4.60;2.23;;;2.70;99.90;;;;;;4942423;28;20050;-88
2022/01/29 00:37:14;;;;;;;18.70;12.67;;;2.70;99.90;;;;;;4969871;28;20045;-89
2022/01/29 00:39:40;;;;;;;29.37;18.03;;;2.60;99.90;;;;;;4968654;28;20070;-87
2022/01/29 00:42:07;;;;;;;9.60;4.90;;;2.70;99.90;;;;;;4963945;28;20054;-88
2022/01/29 00:44:33;;;;;;;3.87;2.80;;;2.70;99.90;;;;;;4957700;28;20071;-88
2022/01/29 00:46:59;;;;;;;4.47;2.30;;;2.70;99.90;;;;;;4965890;28;20055;-88
2022/01/29 00:49:27;;;;;;;6.23;2.30;;;2.60;99.90;;;;;;4961309;28;20051;-88
2022/01/29 00:51:53;;;;;;;8.80;2.93;;;2.60;99.90;;;;;;4956800;28;20043;-90
2022/01/29 00:54:21;;;;;;;10.10;1.73;;;2.70;99.90;;;;;;4956462;28;20051;-91
2022/01/29 00:56:49;;;;;;;7.60;1.60;;;2.70;99.90;;;;;;4964940;28;20062;-91
2022/01/29 00:59:15;;;;;;;5.43;1.57;;;2.70;99.90;;;;;;5005835;28;20081;-90
2022/01/29 01:01:41;;;;;;;5.50;1.57;;;2.70;99.90;;;;;;4974589;28;20048;-87
2022/01/29 01:04:08;;;;;;;9.40;2.87;;;2.80;99.90;;;;;;4972155;28;20055;-89
2022/01/29 01:06:35;;;;;;;3.87;1.03;;;2.80;99.90;;;;;;4967910;28;20049;-89
2022/01/29 01:09:01;;;;;;;14.93;2.77;;;2.70;99.90;;;;;;4970983;28;20051;-89
2022/01/29 01:11:27;;;;;;;14.23;1.97;;;2.70;99.90;;;;;;4967161;28;20118;-88
2022/01/29 01:13:54;;;;;;;8.00;2.30;;;2.80;99.90;;;;;;4957654;28;20051;-89
2022/01/29 01:16:21;;;;;;;10.13;1.50;;;2.80;99.90;;;;;;4955839;28;20051;-90
2022/01/29 01:18:48;;;;;;;10.87;2.17;;;2.80;99.90;;;;;;4956386;28;20055;-88
2022/01/29 01:21:14;;;;;;;12.90;1.97;;;2.80;99.90;;;;;;4955810;28;20070;-88
2022/01/29 01:23:43;;;;;;;6.77;2.90;;;2.80;99.90;;;;;;4955281;28;20063;-88
2022/01/29 01:26:10;;;;;;;8.77;1.93;;;2.80;99.90;;;;;;4953757;28;20111;-89
2022/01/29 01:28:36;;;;;;;7.63;2.00;;;2.80;99.90;;;;;;4961015;28;20485;-86
2022/01/29 01:31:02;;;;;;;5.17;1.80;;;2.80;99.90;;;;;;4975050;28;20137;-87
2022/01/29 01:33:29;;;;;;;9.23;2.10;;;2.90;99.90;;;;;;4957006;28;20450;-86
2022/01/29 01:35:59;;;;;;;11.00;2.87;;;2.80;99.90;;;;;;4953414;28;20063;-88
2022/01/29 01:38:33;;;;;;;7.53;2.57;;;2.90;99.90;;;;;;4955126;28;20458;-88
2022/01/29 01:41:08;;;;;;;9.70;2.77;;;2.80;99.90;;;;;;4954455;28;20393;-86
2022/01/29 01:43:34;;;;;;;6.23;1.40;;;2.80;99.90;;;;;;4954926;28;20050;-85
2022/01/29 01:46:03;;;;;;;3.57;1.40;;;2.80;99.90;;;;;;4955598;28;20051;-86
2022/01/29 01:48:30;;;;;;;15.47;3.53;;;2.90;99.90;;;;;;4953351;28;20078;-87
2022/01/29 01:50:56;;;;;;;8.03;2.40;;;2.90;99.90;;;;;;4939533;28;20110;-87
2022/01/29 01:53:23;;;;;;;11.00;1.90;;;2.90;99.90;;;;;;4974952;28;20093;-87
2022/01/29 01:55:49;;;;;;;10.43;1.90;;;2.90;99.90;;;;;;4940841;28;20055;-87
2022/01/29 01:58:16;;;;;;;6.60;2.60;;;3.00;99.90;;;;;;4953018;28;20047;-88
2022/01/29 02:00:43;;;;;;;4.77;1.73;;;2.90;99.90;;;;;;4957131;28;20481;-88
2022/01/29 02:03:10;;;;;;;5.77;1.10;;;2.90;99.90;;;;;;4963059;28;20051;-88
2022/01/29 02:05:36;;;;;;;9.87;2.10;;;3.00;99.90;;;;;;4955546;28;20583;-89
2022/01/29 02:08:03;;;;;;;8.83;2.90;;;2.90;99.90;;;;;;4950404;28;20504;-91
2022/01/29 02:10:30;;;;;;;7.60;2.93;;;3.00;99.90;;;;;;4954016;28;20054;-89
2022/01/29 02:13:02;;;;;;;14.83;3.90;;;3.00;99.90;;;;;;4955291;28;20047;-89
2022/01/29 02:15:29;;;;;;;10.73;3.30;;;2.90;99.90;;;;;;4971880;28;20062;-87
2022/01/29 02:17:56;;;;;;;6.93;1.67;;;2.90;99.90;;;;;;4974883;28;20058;-86
2022/01/29 02:20:27;;;;;;;3.93;2.67;;;3.00;99.90;;;;;;4955246;28;20055;-87
2022/01/29 02:22:54;;;;;;;4.60;1.87;;;3.00;99.90;;;;;;4974529;28;20046;-88
2022/01/29 02:25:31;;;;;;;13.57;3.27;;;3.00;99.90;;;;;;4973599;28;20059;-88
2022/01/29 02:27:59;;;;;;;9.40;2.73;;;3.00;99.90;;;;;;4976519;28;20078;-90
2022/01/29 02:30:28;;;;;;;6.77;1.80;;;3.00;99.90;;;;;;4976988;28;20059;-89
2022/01/29 02:32:54;;;;;;;9.27;2.17;;;3.00;99.90;;;;;;4984786;28;20083;-89
2022/01/29 02:35:21;;;;;;;14.93;3.90;;;3.00;99.90;;;;;;4981820;28;20047;-88
2022/01/29 02:37:51;;;;;;;8.30;2.87;;;3.00;99.90;;;;;;4956175;28;20051;-88
2022/01/29 02:40:19;;;;;;;3.13;1.83;;;3.00;99.90;;;;;;4953102;28;20051;-87
2022/01/29 02:42:45;;;;;;;16.93;3.07;;;3.00;99.90;;;;;;4957142;28;20101;-88
2022/01/29 02:45:12;;;;;;;16.50;3.40;;;3.00;99.90;;;;;;4955088;28;20211;-87
2022/01/29 02:47:38;;;;;;;7.47;2.07;;;3.00;99.90;;;;;;4939084;29;20050;-86
2022/01/29 02:50:05;;;;;;;11.40;2.10;;;3.00;99.90;;;;;;4974413;29;20082;-88
2022/01/29 02:52:31;;;;;;;4.77;2.17;;;3.00;99.90;;;;;;4979688;28;20033;-90
2022/01/29 02:54:58;;;;;;;6.73;2.70;;;3.00;99.90;;;;;;4983712;28;21047;-88
2022/01/29 02:57:25;;;;;;;5.57;2.17;;;3.00;99.90;;;;;;4960564;28;20066;-87
2022/01/29 02:59:52;;;;;;;7.63;2.43;;;3.00;99.90;;;;;;4959494;28;20055;-87
2022/01/29 03:02:19;;;;;;;7.20;2.03;;;3.00;99.90;;;;;;4961679;28;20055;-85
2022/01/29 03:04:45;;;;;;;13.80;2.80;;;3.00;99.90;;;;;;4958283;28;20069;-89
2022/01/29 03:07:11;;;;;;;5.90;2.20;;;2.90;99.90;;;;;;4954539;28;20051;-89
2022/01/29 03:09:37;;;;;;;7.27;2.77;;;3.00;99.90;;;;;;4953402;28;20051;-88
2022/01/29 03:12:04;;;;;;;9.27;1.87;;;2.90;99.90;;;;;;4957617;28;20386;-88
2022/01/29 03:14:31;;;;;;;14.10;4.13;;;2.90;99.90;;;;;;4957767;28;20052;-88
2022/01/29 03:16:58;;;;;;;4.00;2.20;;;2.90;99.90;;;;;;4941508;28;20137;-87
2022/01/29 03:19:26;;;;;;;7.03;1.93;;;2.90;99.90;;;;;;4964743;28;20058;-91
2022/01/29 03:21:53;;;;;;;9.20;3.77;;;2.80;99.90;;;;;;4976647;28;20055;-90
2022/01/29 03:24:20;;;;;;;10.50;2.33;;;2.80;99.90;;;;;;4975763;28;20055;-86
2022/01/29 03:26:46;;;;;;;13.70;2.20;;;2.70;99.90;;;;;;4973118;28;20043;-84
2022/01/29 03:29:12;;;;;;;7.97;1.67;;;2.70;99.90;;;;;;4958509;28;20634;-85
2022/01/29 03:31:39;;;;;;;8.47;2.50;;;2.70;99.90;;;;;;4976738;28;20073;-84
2022/01/29 03:34:05;;;;;;;3.50;2.13;;;2.60;99.90;;;;;;4974762;28;20055;-83
2022/01/29 03:36:32;;;;;;;5.97;2.23;;;2.60;99.90;;;;;;4969957;28;20070;-83
2022/01/29 03:38:58;;;;;;;10.17;3.03;;;2.60;99.90;;;;;;4965923;28;20080;-82
2022/01/29 03:41:24;;;;;;;9.27;2.57;;;2.50;99.90;;;;;;4955441;28;20051;-84
2022/01/29 03:43:52;;;;;;;5.50;2.57;;;2.50;99.90;;;;;;4988373;28;20066;-84
2022/01/29 03:46:18;;;;;;;3.00;2.33;;;2.50;99.90;;;;;;4973666;28;20104;-85
2022/01/29 03:48:46;;;;;;;6.50;2.27;;;2.50;99.90;;;;;;4970033;28;20058;-88
2022/01/29 03:51:12;;;;;;;7.40;2.97;;;2.40;99.90;;;;;;4970808;28;20051;-81
2022/01/29 03:53:38;;;;;;;14.13;2.43;;;2.40;99.90;;;;;;4969770;28;20062;-82
2022/01/29 03:56:05;;;;;;;7.20;2.37;;;2.40;99.90;;;;;;4965101;28;20055;-84
2022/01/29 03:58:31;;;;;;;6.03;1.97;;;2.40;99.90;;;;;;4964457;28;20055;-84
2022/01/29 04:00:57;;;;;;;5.47;2.53;;;2.40;99.90;;;;;;4949388;29;20083;-83
2022/01/29 04:03:23;;;;;;;8.67;3.10;;;2.50;99.90;;;;;;4973036;29;20055;-84
2022/01/29 04:05:50;;;;;;;5.87;2.47;;;2.40;99.90;;;;;;4988661;28;20063;-83
2022/01/29 04:08:18;;;;;;;12.47;2.83;;;2.40;99.90;;;;;;5005417;28;20057;-83
2022/01/29 04:10:44;;;;;;;6.07;2.37;;;2.30;99.90;;;;;;4978282;28;20055;-85
2022/01/29 04:13:12;;;;;;;5.47;2.87;;;2.30;99.90;;;;;;4994196;28;20074;-84
2022/01/29 04:15:39;;;;;;;9.27;3.43;;;2.30;99.90;;;;;;4989536;28;20102;-84
2022/01/29 04:18:05;;;;;;;13.83;4.67;;;2.30;99.90;;;;;;4975304;28;20055;-84
2022/01/29 04:20:31;;;;;;;13.37;3.73;;;2.40;99.90;;;;;;4972313;28;20087;-84
2022/01/29 04:22:58;;;;;;;7.37;4.50;;;2.30;99.90;;;;;;4967119;28;20055;-85
2022/01/29 04:25:24;;;;;;;14.67;4.80;;;2.40;99.90;;;;;;4958487;28;20051;-87
2022/01/29 04:27:51;;;;;;;9.37;3.73;;;2.30;99.90;;;;;;4960832;28;20494;-87
2022/01/29 04:30:27;;;;;;;12.33;3.10;;;2.40;99.90;;;;;;4951216;28;20185;-86
2022/01/29 04:33:23;;;;;;;4.83;3.70;;;2.40;99.90;;;;;;4992547;28;20050;-87
2022/01/29 04:35:50;;;;;;;14.20;3.40;;;2.40;99.90;;;;;;4956551;28;20061;-87
2022/01/29 04:38:18;;;;;;;7.17;3.87;;;2.50;99.90;;;;;;4971177;28;20044;-85
2022/01/29 04:40:44;;;;;;;9.60;4.23;;;2.50;99.90;;;;;;4973203;28;20086;-87
2022/01/29 04:43:10;;;;;;;8.27;3.80;;;2.50;99.90;;;;;;4966376;28;20051;-88
2022/01/29 04:45:36;;;;;;;13.47;5.67;;;2.50;99.90;;;;;;4962930;28;20047;-86
2022/01/29 04:48:03;;;;;;;14.93;4.33;;;2.50;99.90;;;;;;4961552;28;20044;-87
2022/01/29 04:50:29;;;;;;;11.23;4.17;;;2.50;99.90;;;;;;4954722;28;20553;-87
2022/01/29 04:52:55;;;;;;;12.33;4.20;;;2.50;99.90;;;;;;4937744;29;20051;-88
2022/01/29 04:55:22;;;;;;;8.63;4.23;;;2.50;99.90;;;;;;4948765;28;20121;-87
2022/01/29 04:57:49;;;;;;;14.17;6.47;;;2.50;99.90;;;;;;4956570;28;20523;-86
2022/01/29 05:00:19;;;;;;;14.43;4.97;;;2.50;99.90;;;;;;4948885;28;20056;-87
2022/01/29 05:02:46;;;;;;;9.07;4.87;;;2.60;99.90;;;;;;4956345;29;20375;-86
2022/01/29 05:05:12;;;;;;;17.70;6.13;;;2.60;99.90;;;;;;4954698;28;20156;-87
2022/01/29 05:07:38;;;;;;;6.17;3.90;;;2.60;99.90;;;;;;4955547;28;20063;-90
2022/01/29 05:10:05;;;;;;;6.73;4.90;;;2.60;99.90;;;;;;4954089;28;20078;-89
2022/01/29 05:12:42;;;;;;;10.10;4.33;;;2.60;99.90;;;;;;4971559;28;20057;-87
2022/01/29 05:15:14;;;;;;;14.10;4.73;;;2.50;99.90;;;;;;4968337;28;20083;-86
2022/01/29 05:28:37;;;;;;;12.07;6.87;;;2.50;99.90;;;;;;4974564;28;20053;-86
2022/01/29 05:31:03;;;;;;;6.43;4.50;;;2.50;99.90;;;;;;4971757;28;20051;-84
2022/01/29 05:33:30;;;;;;;7.67;5.00;;;2.60;99.90;;;;;;4958670;28;20062;-86
2022/01/29 05:35:56;;;;;;;8.03;5.60;;;2.60;99.90;;;;;;4955224;28;20063;-86
2022/01/29 05:38:27;;;;;;;12.33;5.67;;;2.60;99.90;;;;;;4949197;28;20051;-88
2022/01/29 05:40:53;;;;;;;9.00;6.40;;;2.60;99.90;;;;;;4972151;28;20150;-87
2022/01/29 05:43:19;;;;;;;10.93;5.30;;;2.60;99.90;;;;;;4974017;28;20401;-86
2022/01/29 05:45:46;;;;;;;7.37;4.80;;;2.60;99.90;;;;;;4952630;28;20126;-86
2022/01/29 05:48:12;;;;;;;17.80;6.17;;;2.60;99.90;;;;;;4955343;28;20062;-87
2022/01/29 05:50:38;;;;;;;11.30;5.23;;;2.60;99.90;;;;;;4954788;28;20051;-87
2022/01/29 05:53:05;;;;;;;15.50;7.10;;;2.60;99.90;;;;;;4955908;28;20043;-88
2022/01/29 05:55:31;;;;;;;9.60;6.33;;;2.60;99.90;;;;;;4950601;28;20525;-85
2022/01/29 05:57:58;;;;;;;13.27;6.90;;;2.60;99.90;;;;;;4952387;28;20055;-86
2022/01/29 06:00:24;;;;;;;14.83;6.03;;;2.60;99.90;;;;;;4955312;28;20099;-86
2022/01/29 06:02:59;;;;;;;9.53;5.20;;;2.70;99.90;;;;;;4955419;28;20106;-86
2022/01/29 06:05:25;;;;;;;14.80;6.73;;;2.70;99.90;;;;;;4951807;28;20106;-85
2022/01/29 06:07:52;;;;;;;13.60;7.67;;;2.70;99.90;;;;;;4968222;28;20051;-86
2022/01/29 06:10:18;;;;;;;12.97;7.43;;;2.70;99.90;;;;;;4972746;28;20055;-85
2022/01/29 06:12:44;;;;;;;21.50;7.23;;;2.70;99.90;;;;;;4962605;28;20577;-85
2022/01/29 06:15:11;;;;;;;9.90;7.50;;;2.70;99.90;;;;;;4938084;28;20543;-85
2022/01/29 06:17:40;;;;;;;18.63;9.33;;;2.70;99.90;;;;;;4964361;28;20498;-84
2022/01/29 06:20:08;;;;;;;17.03;6.30;;;2.80;99.90;;;;;;4955084;28;20478;-87
2022/01/29 06:22:34;;;;;;;13.67;6.80;;;2.70;99.90;;;;;;4960662;28;20059;-86
2022/01/29 06:25:00;;;;;;;12.37;8.40;;;2.80;99.90;;;;;;4974019;28;20051;-87
2022/01/29 06:27:27;;;;;;;16.83;6.67;;;2.80;99.90;;;;;;4969049;28;20051;-86
2022/01/29 06:29:53;;;;;;;14.23;8.97;;;2.90;99.90;;;;;;4968842;28;20140;-88
2022/01/29 06:32:20;;;;;;;14.40;7.23;;;2.80;99.90;;;;;;4973144;28;20059;-87
2022/01/29 06:34:46;;;;;;;13.33;7.23;;;2.90;99.90;;;;;;4973370;28;20039;-88
2022/01/29 06:37:13;;;;;;;9.23;7.33;;;2.90;99.90;;;;;;4970181;28;20047;-87
2022/01/29 06:39:40;;;;;;;17.93;8.07;;;2.90;99.90;;;;;;5008509;28;20058;-87
2022/01/29 06:42:06;;;;;;;13.50;7.23;;;2.90;99.90;;;;;;4974193;28;20059;-89
2022/01/29 06:44:35;;;;;;;15.00;8.63;;;2.90;99.90;;;;;;4970320;28;20055;-90
2022/01/29 06:47:02;;;;;;;14.87;9.13;;;2.90;99.90;;;;;;4966643;28;20066;-89
2022/01/29 06:49:28;;;;;;;19.60;7.53;;;3.00;99.90;;;;;;4971004;28;20312;-89
2022/01/29 06:51:54;;;;;;;13.10;7.33;;;3.00;99.90;;;;;;4960819;28;20474;-87
2022/01/29 06:54:21;;;;;;;15.43;8.17;;;3.00;99.90;;;;;;4959291;28;20105;-87
2022/01/29 06:56:47;;;;;;;12.30;8.77;;;3.10;99.90;;;;;;4965142;28;20051;-88
2022/01/29 06:59:14;;;;;;;15.53;10.47;;;3.00;99.90;;;;;;4977506;28;20059;-87
2022/01/29 07:01:40;;;;;;;13.90;8.53;;;3.00;99.90;;;;;;4987715;28;20054;-88
2022/01/29 07:04:06;;;;;;;20.93;7.03;;;3.00;99.90;;;;;;4986035;28;20551;-88
2022/01/29 07:06:33;;;;;;;12.50;8.47;;;3.10;99.90;;;;;;4978598;28;20062;-87
2022/01/29 07:08:59;;;;;;;18.60;8.57;;;3.10;99.90;;;;;;4971277;28;20063;-87
2022/01/29 07:11:26;;;;;;;12.10;6.97;;;3.10;99.90;;;;;;4978036;28;20054;-88
2022/01/29 07:14:01;;;;;;;12.57;6.70;;;3.10;99.90;;;;;;4989306;28;20046;-87
2022/01/29 07:16:27;;;;;;;13.00;8.10;;;3.10;99.90;;;;;;4985514;28;20062;-87
2022/01/29 07:18:53;;;;;;;15.60;8.87;;;3.10;99.90;;;;;;4973316;28;20078;-84
2022/01/29 07:21:20;;;;;;;11.77;7.87;;;3.10;99.90;;;;;;4957112;28;20074;-87
2022/01/29 07:23:46;;;;;;;21.00;7.37;;;3.20;99.90;;;;;;4958811;28;20190;-85
2022/01/29 07:26:12;;;;;;;16.97;9.53;;;3.10;99.90;;;;;;4977436;28;20046;-85
2022/01/29 07:28:40;;;;;;;18.23;8.60;;;3.20;99.90;;;;;;4995933;28;20516;-88
2022/01/29 07:31:06;;;;;;;21.40;8.83;;;3.20;99.90;;;;;;4996790;28;20061;-90
2022/01/29 07:33:32;;;;;;;13.83;6.50;;;3.20;99.90;;;;;;4990951;28;20185;-88
2022/01/29 07:35:59;;;;;;;21.40;8.77;;;3.20;99.90;;;;;;4957517;28;20051;-88
2022/01/29 07:38:27;;;;;;;9.83;7.03;;;3.20;99.90;;;;;;4956673;28;20148;-87
2022/01/29 07:40:53;;;;;;;13.60;7.23;;;3.20;99.90;;;;;;4957646;28;20062;-86
2022/01/29 07:43:20;;;;;;;9.37;6.30;;;3.20;99.90;;;;;;4956592;28;20500;-85
2022/01/29 07:45:47;;;;;;;24.53;10.23;;;3.20;99.90;;;;;;4974078;28;20063;-85
2022/01/29 07:48:13;;;;;;;23.10;10.93;;;3.20;99.90;;;;;;4965831;28;20047;-82
2022/01/29 07:50:39;;;;;;;17.30;8.43;;;3.20;99.90;;;;;;4961910;28;20055;-83
2022/01/29 07:53:06;;;;;;;24.83;9.70;;;3.20;99.90;;;;;;4962491;28;20127;-82
2022/01/29 07:55:32;;;;;;;15.23;10.07;;;3.20;99.90;;;;;;4975227;28;20058;-80
2022/01/29 07:57:58;;;;;;;15.13;8.57;;;3.30;99.90;;;;;;4976153;28;20054;-82
2022/01/29 08:00:25;;;;;;;83.23;45.70;;;3.30;99.90;;;;;;4971489;28;20056;-87
2022/01/29 08:02:51;;;;;;;62.77;36.00;;;3.30;99.90;;;;;;4967012;28;20044;-79
2022/01/29 08:05:17;;;;;;;17.63;9.00;;;3.30;99.90;;;;;;4968529;28;20039;-83
2022/01/29 08:07:43;;;;;;;20.30;10.73;;;3.30;99.90;;;;;;4977974;28;20054;-84
2022/01/29 08:10:10;;;;;;;21.47;11.50;;;3.30;99.90;;;;;;4964075;28;20051;-83
2022/01/29 08:12:36;;;;;;;14.00;8.37;;;3.40;99.90;;;;;;4963814;28;20070;-84
2022/01/29 08:15:03;;;;;;;17.47;9.17;;;3.40;99.90;;;;;;4971510;28;20050;-82
2022/01/29 08:17:29;;;;;;;16.30;10.13;;;3.40;99.90;;;;;;4984755;28;20082;-81
2022/01/29 08:19:57;;;;;;;18.63;12.13;;;3.30;99.90;;;;;;4965424;28;20070;-82
2022/01/29 08:22:24;;;;;;;15.30;10.00;;;3.40;99.90;;;;;;4986343;28;20058;-82
2022/01/29 08:24:50;;;;;;;22.73;10.20;;;3.40;99.90;;;;;;4994081;28;20035;-82
2022/01/29 08:27:17;;;;;;;16.60;9.67;;;3.40;99.90;;;;;;4975957;28;20039;-85
2022/01/29 08:29:43;;;;;;;32.07;17.83;;;3.40;99.90;;;;;;4956227;28;20040;-82
2022/01/29 08:32:09;;;;;;;18.60;12.27;;;3.50;99.90;;;;;;4976819;28;20046;-85
2022/01/29 08:34:36;;;;;;;19.90;9.43;;;3.50;99.90;;;;;;4967805;28;20525;-83
2022/01/29 08:37:04;;;;;;;17.10;10.00;;;3.50;99.90;;;;;;4956180;28;20055;-83
2022/01/29 08:39:31;;;;;;;24.73;10.40;;;3.60;99.90;;;;;;4974659;28;21383;-82
2022/01/29 08:41:57;;;;;;;20.77;11.10;;;3.60;99.90;;;;;;4971087;28;20071;-87
2022/01/29 08:44:23;;;;;;;14.57;9.33;;;3.60;99.90;;;;;;4946658;28;20048;-85
2022/01/29 08:46:50;;;;;;;24.13;10.43;;;3.70;99.90;;;;;;4949057;28;20055;-87
2022/01/29 08:49:16;;;;;;;15.90;9.10;;;3.70;99.90;;;;;;4940554;28;20111;-89
2022/01/29 08:51:42;;;;;;;19.57;11.47;;;3.70;99.90;;;;;;4945135;28;20051;-84
2022/01/29 08:54:09;;;;;;;18.10;12.17;;;3.70;99.90;;;;;;4956239;28;20051;-84
2022/01/29 08:56:35;;;;;;;19.37;8.67;;;3.70;99.90;;;;;;4955829;28;20051;-83
2022/01/29 08:59:01;;;;;;;15.63;9.23;;;3.80;99.90;;;;;;4956332;28;20047;-84
2022/01/29 09:01:28;;;;;;;17.93;8.60;;;3.80;99.90;;;;;;4957474;28;20047;-83
2022/01/29 09:03:55;;;;;;;13.33;8.57;;;3.80;99.90;;;;;;4957168;28;20051;-85
2022/01/29 09:06:21;;;;;;;17.73;10.13;;;3.90;99.90;;;;;;4976366;28;20113;-84
2022/01/29 09:08:50;;;;;;;13.57;8.23;;;3.90;99.90;;;;;;4967114;28;20050;-78
2022/01/29 09:11:18;;;;;;;11.27;6.97;;;3.90;99.90;;;;;;4947135;28;20074;-77
2022/01/29 09:13:44;;;;;;;20.13;10.17;;;3.90;99.90;;;;;;4944463;28;20036;-79
2022/01/29 09:16:10;;;;;;;17.07;8.67;;;3.90;99.90;;;;;;4957153;28;20051;-81
2022/01/29 09:18:37;;;;;;;14.17;6.80;;;3.90;99.90;;;;;;4947020;28;20051;-81
2022/01/29 09:21:03;;;;;;;15.77;9.27;;;3.90;99.90;;;;;;4957214;28;20392;-79
2022/01/29 09:23:29;;;;;;;16.10;8.20;;;4.00;99.90;;;;;;4942384;28;20075;-80
2022/01/29 09:25:55;;;;;;;16.07;9.07;;;4.00;99.90;;;;;;4939263;28;20048;-80
2022/01/29 09:28:23;;;;;;;16.63;8.10;;;4.00;99.90;;;;;;4944002;28;20051;-80
2022/01/29 09:30:52;;;;;;;19.80;10.47;;;4.00;99.90;;;;;;4933678;28;20506;-78
2022/01/29 09:33:18;;;;;;;19.67;12.10;;;4.00;99.90;;;;;;4948642;28;20498;-78
2022/01/29 09:35:44;;;;;;;45.57;25.70;;;4.10;99.90;;;;;;4942105;28;20062;-80
2022/01/29 09:38:12;;;;;;;21.73;10.90;;;4.10;99.90;;;;;;4936236;28;20048;-78
2022/01/29 09:40:40;;;;;;;14.23;9.27;;;4.10;99.90;;;;;;4942723;28;20173;-79
2022/01/29 09:43:09;;;;;;;17.70;9.97;;;4.10;99.90;;;;;;4951472;28;20055;-80
2022/01/29 09:45:37;;;;;;;13.80;9.17;;;4.10;99.90;;;;;;4945579;28;20051;-78
2022/01/29 09:48:07;;;;;;;17.37;8.67;;;4.10;99.90;;;;;;4950893;28;20047;-79
2022/01/29 09:50:36;;;;;;;19.53;9.10;;;4.10;99.90;;;;;;4967902;28;20046;-79
2022/01/29 09:53:04;;;;;;;17.53;9.70;;;4.20;99.90;;;;;;4972700;28;20059;-78
2022/01/29 09:55:31;;;;;;;20.67;8.87;;;4.20;99.90;;;;;;4954109;28;20049;-79
2022/01/29 09:57:59;;;;;;;15.70;9.03;;;4.20;99.90;;;;;;4952549;28;20557;-79
2022/01/29 10:00:26;;;;;;;17.60;8.07;;;4.20;99.90;;;;;;4950978;28;20051;-78
2022/01/29 10:03:14;;;;;;;21.17;10.90;;;4.30;99.90;;;;;;4951913;28;20505;-78
2022/01/29 10:05:45;;;;;;;16.47;9.93;;;4.30;99.90;;;;;;4980192;28;20133;-78
2022/01/29 10:08:12;;;;;;;21.50;9.75;;;4.30;99.90;;;;;;4967361;28;20055;-78
2022/01/29 10:10:39;;;;;;;20.13;10.47;;;4.30;99.90;;;;;;4973269;28;20047;-78
2022/01/29 10:13:26;;;;;;;18.87;11.13;;;4.40;99.90;;;;;;4964033;28;20047;-80
2022/01/29 10:16:03;;;;;;;18.70;10.57;;;4.40;99.90;;;;;;4946487;28;20055;-80
2022/01/29 10:18:31;;;;;;;22.87;9.70;;;4.50;99.90;;;;;;4979221;28;20046;-80
2022/01/29 10:21:07;;;;;;;19.07;10.07;;;4.50;99.90;;;;;;4966297;28;20105;-79
2022/01/29 10:23:33;;;;;;;23.53;11.90;;;4.50;99.90;;;;;;4947534;28;20047;-81
2022/01/29 10:26:00;;;;;;;21.37;10.97;;;4.50;99.90;;;;;;4970683;28;20137;-79
2022/01/29 10:28:27;;;;;;;21.33;9.90;;;4.60;99.90;;;;;;4971478;28;20150;-78
2022/01/29 10:30:59;;;;;;;21.53;12.17;;;4.70;99.90;;;;;;4971843;28;20061;-79
2022/01/29 10:33:29;;;;;;;21.33;11.97;;;4.70;99.90;;;;;;4973804;28;20058;-80
2022/01/29 10:35:57;;;;;;;20.47;11.63;;;4.70;99.90;;;;;;4968680;28;20063;-79
2022/01/29 10:38:25;;;;;;;22.93;12.30;;;4.80;99.90;;;;;;4973546;28;20051;-80
2022/01/29 10:41:12;;;;;;;28.80;13.20;;;4.80;99.90;;;;;;4981180;28;20043;-80
2022/01/29 10:43:54;;;;;;;21.77;10.50;;;4.90;99.90;;;;;;4960005;28;20062;-80
2022/01/29 10:46:25;;;;;;;24.45;12.48;;;4.90;99.90;;;;;;4954030;28;20074;-79
2022/01/29 10:48:51;;;;;;;25.23;13.20;;;4.90;99.90;;;;;;4969212;28;20084;-81
2022/01/29 10:51:19;;;;;;;26.33;12.83;;;5.00;99.90;;;;;;4984315;28;20113;-80
2022/01/29 10:53:45;;;;;;;27.20;12.60;;;5.10;99.90;;;;;;4959102;28;20078;-79
2022/01/29 10:56:11;;;;;;;20.73;10.30;;;5.10;99.90;;;;;;4953714;28;20474;-79
2022/01/29 10:58:43;;;;;;;24.30;11.60;;;5.10;99.90;;;;;;4952801;28;20055;-79
2022/01/29 11:01:14;;;;;;;24.57;12.87;;;5.10;99.90;;;;;;4957306;28;20051;-80
2022/01/29 11:03:42;;;;;;;26.42;13.88;;;5.20;99.90;;;;;;4950982;28;20421;-77
2022/01/29 11:06:10;;;;;;;24.70;12.40;;;5.20;99.90;;;;;;4956127;28;20055;-79
2022/01/29 11:08:39;;;;;;;27.90;12.73;;;5.30;99.90;;;;;;4974529;28;20059;-80
2022/01/29 11:11:05;;;;;;;29.40;13.13;;;5.30;99.90;;;;;;4955344;28;20047;-79
2022/01/29 11:13:33;;;;;;;22.00;11.50;;;5.30;99.90;;;;;;4988703;28;20054;-80
2022/01/29 11:16:01;;;;;;;28.07;12.43;;;5.40;99.90;;;;;;4978737;28;20055;-81
2022/01/29 11:18:30;;;;;;;21.40;12.97;;;5.50;99.90;;;;;;4971012;28;20057;-80
2022/01/29 11:20:56;;;;;;;27.33;11.83;;;5.50;99.90;;;;;;4952266;28;20063;-79
2022/01/29 11:23:23;;;;;;;24.43;13.33;;;5.50;99.90;;;;;;4952912;28;20049;-81
2022/01/29 11:25:54;;;;;;;22.27;12.70;;;5.60;99.90;;;;;;4972916;28;20366;-80
2022/01/29 11:28:21;;;;;;;25.60;12.13;;;5.60;99.90;;;;;;4972705;28;20055;-80
2022/01/29 11:31:28;;;;;;;37.30;12.87;;;5.60;99.90;;;;;;4977943;28;20055;-79
2022/01/29 11:34:21;;;;;;;26.53;12.63;;;5.70;99.90;;;;;;4981424;28;20137;-79
2022/01/29 11:37:07;;;;;;;25.23;11.77;;;5.80;99.90;;;;;;4969785;28;20497;-81
2022/01/29 11:39:36;;;;;;;24.73;11.87;;;5.80;99.90;;;;;;4991812;28;20050;-79
2022/01/29 11:42:31;;;;;;;24.10;12.80;;;5.90;99.90;;;;;;4974357;28;20081;-80
2022/01/29 11:45:17;;;;;;;22.33;11.87;;;6.00;99.90;;;;;;4965839;28;20054;-79
2022/01/29 11:47:47;;;;;;;21.30;11.13;;;6.00;99.90;;;;;;4972286;28;20043;-83
2022/01/29 11:50:50;;;;;;;18.43;10.20;;;6.00;99.90;;;;;;4970988;28;20054;-81
2022/01/29 11:53:17;;;;;;;20.93;10.70;;;6.10;99.90;;;;;;4967658;28;20099;-81
2022/01/29 11:55:46;;;;;;;19.93;11.10;;;6.20;99.90;;;;;;4974951;28;20062;-80
2022/01/29 11:58:21;;;;;;;24.83;12.67;;;6.20;99.90;;;;;;4976669;28;20062;-80
2022/01/29 12:00:49;;;;;;;19.70;9.60;;;6.20;99.90;;;;;;4968440;28;20111;-80
2022/01/29 12:03:53;;;;;;;22.43;11.17;;;6.30;99.90;;;;;;4961769;28;20364;-79
2022/01/29 12:06:23;;;;;;;13.90;9.60;;;6.40;99.90;;;;;;4934925;29;20561;-79
2022/01/29 12:09:29;;;;;;;20.73;10.50;;;6.40;99.90;;;;;;4936663;29;20490;-80
2022/01/29 12:12:14;;;;;;;11.00;8.33;;;6.50;99.90;;;;;;4936011;29;20422;-80
2022/01/29 12:14:41;;;;;;;18.80;9.80;;;6.50;99.90;;;;;;4951504;28;20052;-80
2022/01/29 12:17:08;;;;;;;14.73;9.07;;;6.50;99.90;;;;;;4982337;28;20053;-77
2022/01/29 12:19:35;;;;;;;113.97;68.33;;;6.60;99.90;;;;;;4956970;28;20082;-79
2022/01/29 12:22:07;;;;;;;27.30;17.03;;;6.60;99.90;;;;;;4984413;28;20059;-83
2022/01/29 12:24:34;;;;;;;16.07;8.67;;;6.70;99.90;;;;;;4951247;28;20047;-78
2022/01/29 12:27:00;;;;;;;10.40;7.67;;;6.70;99.90;;;;;;4959395;28;20069;-84
2022/01/29 12:29:26;;;;;;;15.93;8.13;;;6.70;99.90;;;;;;4983139;28;20054;-83
2022/01/29 12:31:57;;;;;;;13.07;7.97;;;6.70;99.90;;;;;;4966638;28;20059;-84
2022/01/29 12:34:24;;;;;;;11.50;7.75;;;6.80;99.90;;;;;;4980510;28;20044;-79
2022/01/29 12:36:51;;;;;;;12.27;8.20;;;6.80;99.90;;;;;;4964831;28;20103;-78
2022/01/29 12:39:22;;;;;;;13.13;7.87;;;6.80;99.90;;;;;;4973595;28;20054;-79
2022/01/29 12:42:01;;;;;;;11.33;7.47;;;6.90;99.90;;;;;;4971061;28;20054;-81
2022/01/29 12:44:27;;;;;;;10.00;7.27;;;6.90;99.90;;;;;;4958873;28;20107;-80
2022/01/29 12:46:58;;;;;;;10.33;6.00;;;7.00;99.90;;;;;;4960103;28;20047;-81
2022/01/29 12:49:25;;;;;;;11.63;8.02;;;7.00;99.90;;;;;;4961850;28;20058;-82
2022/01/29 12:51:56;;;;;;;12.90;6.27;;;7.00;99.90;;;;;;4974163;28;20086;-88
2022/01/29 12:54:29;;;;;;;10.35;7.65;;;7.00;99.90;;;;;;4955765;28;20055;-81
2022/01/29 12:56:56;;;;;;;13.37;7.50;;;7.00;99.90;;;;;;4954246;28;20052;-77
2022/01/29 12:59:22;;;;;;;13.67;7.43;;;7.00;99.90;;;;;;4954903;28;20414;-79
2022/01/29 13:01:49;;;;;;;10.30;6.53;;;7.00;99.90;;;;;;4973279;28;20066;-78
2022/01/29 13:04:18;;;;;;;10.07;6.93;;;7.10;99.90;;;;;;4978947;28;20083;-79
2022/01/29 13:06:46;;;;;;;10.10;6.07;;;7.10;99.90;;;;;;4961407;28;20052;-78